This is the latest recevied weather packets stored in our database for station/object KE0FIN. If no packets are shown the sender has not sent any weather packets the latest 10 day(s).
| Time | Temp. | Humidity | Pressure | Rain* | Wind** | Luminosity | Snow |
|---|---|---|---|---|---|---|---|
| 1777588246 | 15° C | 72% | 1068.2 hPa | 0 mm | - | 24 W/m² | - |
| 1777587940 | 15° C | 69% | 1068.1 hPa | 0 mm | - | 31 W/m² | - |
| 1777587637 | 16.11° C | 64% | 1068.1 hPa | 0 mm | - | 41 W/m² | - |
| 1777587332 | 17.78° C | 56% | 1068 hPa | 0 mm | - | 22 W/m² | - |
| 1777587027 | 17.78° C | 53% | 1067.9 hPa | 0 mm | - | 25 W/m² | - |
| 1777586723 | 18.33° C | 51% | 1067.9 hPa | 0 mm | - | 66 W/m² | - |
| 1777586420 | 18.89° C | 51% | 1068.1 hPa | 0 mm | - | 149 W/m² | - |
| 1777586119 | 18.89° C | 51% | 1068.1 hPa | 0 mm | - | 268 W/m² | - |
| 1777585818 | 18.89° C | 51% | 1068.1 hPa | 0 mm | - | 353 W/m² | - |
| 1777585512 | 18.89° C | 53% | 1068.2 hPa | 0 mm | - | 297 W/m² | - |
| 1777585208 | 18.33° C | 52% | 1068.3 hPa | 0 mm | - | 324 W/m² | - |
| 1777584903 | 17.78° C | 53% | 1068.3 hPa | 0 mm | - | 295 W/m² | - |
| 1777584601 | 17.22° C | 54% | 1068.4 hPa | 0 mm | - | 205 W/m² | - |
| 1777584298 | 17.78° C | 54% | 1068.6 hPa | 0 mm | - | 213 W/m² | - |
| 1777583992 | 17.78° C | 56% | 1068.6 hPa | 0 mm | - | 224 W/m² | - |
| 1777583687 | 17.22° C | 57% | 1068.7 hPa | 0 mm | - | 243 W/m² | - |
| 1777583387 | 16.67° C | 57% | 1068.6 hPa | 0 mm | - | 208 W/m² | - |
| 1777583085 | 16.67° C | 58% | 1068.8 hPa | 0 mm | - | 199 W/m² | - |
| 1777582783 | 16.11° C | 58% | 1068.8 hPa | 0 mm | - | 129 W/m² | - |
| 1777582478 | 16.11° C | 59% | 1068.8 hPa | 0 mm | - | 104 W/m² | - |
| 1777582173 | 16.11° C | 58% | 1068.9 hPa | 0 mm | - | 107 W/m² | - |
| 1777581872 | 16.11° C | 58% | 1069.3 hPa | 0 mm | - | 96 W/m² | - |
| 1777581567 | 16.11° C | 58% | 1069 hPa | 0 mm | - | 96 W/m² | - |
| 1777581262 | 16.67° C | 58% | 1069.2 hPa | 0 mm | - | 99 W/m² | - |
| 1777580957 | 16.67° C | 58% | 1069.5 hPa | 0 mm | - | 104 W/m² | - |
* Rain latest hour (hover to see other rain measurements)
** Current wind speed in m/s (hover to see current wind gust speed)